sensor_id;sensor_type;location;lat;lon;timestamp;temperature;humidity
11264;DHT22;5689;48.798;9.070;2022-09-30T00:01:32;8.20;99.90
11264;DHT22;5689;48.798;9.070;2022-09-30T00:04:01;8.10;99.90
11264;DHT22;5689;48.798;9.070;2022-09-30T00:06:31;8.30;99.90
11264;DHT22;5689;48.798;9.070;2022-09-30T00:09:04;8.40;99.90
11264;DHT22;5689;48.798;9.070;2022-09-30T00:11:34;8.30;99.90
11264;DHT22;5689;48.798;9.070;2022-09-30T00:14:04;8.20;99.90
11264;DHT22;5689;48.798;9.070;2022-09-30T00:16:34;8.20;99.90
11264;DHT22;5689;48.798;9.070;2022-09-30T00:19:02;8.20;99.90
11264;DHT22;5689;48.798;9.070;2022-09-30T00:21:32;8.30;99.90
11264;DHT22;5689;48.798;9.070;2022-09-30T00:24:01;8.30;99.90
11264;DHT22;5689;48.798;9.070;2022-09-30T00:26:29;8.40;99.90
11264;DHT22;5689;48.798;9.070;2022-09-30T00:28:58;8.30;99.90
11264;DHT22;5689;48.798;9.070;2022-09-30T00:31:29;8.40;99.90
11264;DHT22;5689;48.798;9.070;2022-09-30T00:33:58;8.30;99.90
11264;DHT22;5689;48.798;9.070;2022-09-30T00:36:41;8.30;99.90
11264;DHT22;5689;48.798;9.070;2022-09-30T00:39:12;8.40;99.90
11264;DHT22;5689;48.798;9.070;2022-09-30T00:41:40;8.70;99.90
11264;DHT22;5689;48.798;9.070;2022-09-30T00:47:39;9.10;99.90
11264;DHT22;5689;48.798;9.070;2022-09-30T00:50:28;9.00;99.90
11264;DHT22;5689;48.798;9.070;2022-09-30T00:53:06;8.80;99.90
11264;DHT22;5689;48.798;9.070;2022-09-30T00:55:43;9.00;99.90
11264;DHT22;5689;48.798;9.070;2022-09-30T00:58:15;8.90;99.90
11264;DHT22;5689;48.798;9.070;2022-09-30T01:00:44;8.80;99.90
11264;DHT22;5689;48.798;9.070;2022-09-30T01:03:12;8.70;99.90
11264;DHT22;5689;48.798;9.070;2022-09-30T01:05:41;8.70;99.90
11264;DHT22;5689;48.798;9.070;2022-09-30T01:08:11;8.60;99.90
11264;DHT22;5689;48.798;9.070;2022-09-30T01:10:39;8.90;99.90
11264;DHT22;5689;48.798;9.070;2022-09-30T01:13:07;8.80;99.90
11264;DHT22;5689;48.798;9.070;2022-09-30T01:15:47;8.70;99.90
11264;DHT22;5689;48.798;9.070;2022-09-30T01:18:25;8.70;99.90
11264;DHT22;5689;48.798;9.070;2022-09-30T01:24:15;8.70;99.90
11264;DHT22;5689;48.798;9.070;2022-09-30T01:27:11;8.70;99.90
11264;DHT22;5689;48.798;9.070;2022-09-30T01:30:07;8.70;99.90
11264;DHT22;5689;48.798;9.070;2022-09-30T01:33:03;8.70;99.90
11264;DHT22;5689;48.798;9.070;2022-09-30T01:35:49;8.80;99.90
11264;DHT22;5689;48.798;9.070;2022-09-30T01:38:25;8.70;99.90
11264;DHT22;5689;48.798;9.070;2022-09-30T01:41:02;8.90;99.90
11264;DHT22;5689;48.798;9.070;2022-09-30T01:43:39;9.10;99.90
11264;DHT22;5689;48.798;9.070;2022-09-30T01:46:24;8.90;99.90
11264;DHT22;5689;48.798;9.070;2022-09-30T01:48:59;8.80;99.90
11264;DHT22;5689;48.798;9.070;2022-09-30T01:51:32;8.70;99.90
11264;DHT22;5689;48.798;9.070;2022-09-30T01:54:04;8.80;99.90
11264;DHT22;5689;48.798;9.070;2022-09-30T01:56:38;8.80;99.90
11264;DHT22;5689;48.798;9.070;2022-09-30T01:59:11;8.70;99.90
11264;DHT22;5689;48.798;9.070;2022-09-30T02:01:45;8.80;99.90
11264;DHT22;5689;48.798;9.070;2022-09-30T02:04:21;9.00;99.90
11264;DHT22;5689;48.798;9.070;2022-09-30T02:06:56;9.20;99.90
11264;DHT22;5689;48.798;9.070;2022-09-30T02:09:29;8.80;99.90
11264;DHT22;5689;48.798;9.070;2022-09-30T02:12:04;8.70;99.90
11264;DHT22;5689;48.798;9.070;2022-09-30T02:14:38;8.60;99.90
11264;DHT22;5689;48.798;9.070;2022-09-30T02:17:11;8.50;99.90
11264;DHT22;5689;48.798;9.070;2022-09-30T02:19:45;8.40;99.90
11264;DHT22;5689;48.798;9.070;2022-09-30T02:22:16;8.30;99.90
11264;DHT22;5689;48.798;9.070;2022-09-30T02:24:47;8.40;99.90
11264;DHT22;5689;48.798;9.070;2022-09-30T02:27:20;8.30;99.90
11264;DHT22;5689;48.798;9.070;2022-09-30T02:29:56;8.40;99.90
11264;DHT22;5689;48.798;9.070;2022-09-30T02:32:29;8.40;99.90
11264;DHT22;5689;48.798;9.070;2022-09-30T02:35:02;8.40;99.90
11264;DHT22;5689;48.798;9.070;2022-09-30T02:37:34;8.30;99.90
11264;DHT22;5689;48.798;9.070;2022-09-30T02:40:07;8.20;99.90
11264;DHT22;5689;48.798;9.070;2022-09-30T02:42:38;8.30;99.90
11264;DHT22;5689;48.798;9.070;2022-09-30T02:45:09;8.10;99.90
11264;DHT22;5689;48.798;9.070;2022-09-30T02:47:47;8.00;99.90
11264;DHT22;5689;48.798;9.070;2022-09-30T02:50:24;7.80;99.90
11264;DHT22;5689;48.798;9.070;2022-09-30T02:53:06;7.90;99.90
11264;DHT22;5689;48.798;9.070;2022-09-30T02:55:41;7.70;99.90
11264;DHT22;5689;48.798;9.070;2022-09-30T02:58:17;7.80;99.90
11264;DHT22;5689;48.798;9.070;2022-09-30T03:00:46;7.60;99.90
11264;DHT22;5689;48.798;9.070;2022-09-30T03:03:19;7.50;99.90
11264;DHT22;5689;48.798;9.070;2022-09-30T03:05:49;7.40;99.90
11264;DHT22;5689;48.798;9.070;2022-09-30T03:08:17;7.60;99.90
11264;DHT22;5689;48.798;9.070;2022-09-30T03:10:47;7.70;99.90
11264;DHT22;5689;48.798;9.070;2022-09-30T03:13:35;7.70;99.90
11264;DHT22;5689;48.798;9.070;2022-09-30T03:16:13;7.60;99.90
11264;DHT22;5689;48.798;9.070;2022-09-30T03:18:58;7.50;99.90
11264;DHT22;5689;48.798;9.070;2022-09-30T03:21:41;7.60;99.90
11264;DHT22;5689;48.798;9.070;2022-09-30T03:24:37;7.80;99.90
11264;DHT22;5689;48.798;9.070;2022-09-30T03:27:14;7.70;99.90
11264;DHT22;5689;48.798;9.070;2022-09-30T03:29:50;7.70;99.90
11264;DHT22;5689;48.798;9.070;2022-09-30T03:32:33;7.80;99.90
11264;DHT22;5689;48.798;9.070;2022-09-30T03:35:14;7.80;99.90
11264;DHT22;5689;48.798;9.070;2022-09-30T03:37:53;7.80;99.90
11264;DHT22;5689;48.798;9.070;2022-09-30T03:40:30;7.80;99.90
11264;DHT22;5689;48.798;9.070;2022-09-30T03:43:04;7.80;99.90
11264;DHT22;5689;48.798;9.070;2022-09-30T03:45:36;8.20;99.90
11264;DHT22;5689;48.798;9.070;2022-09-30T03:48:07;8.10;99.90
11264;DHT22;5689;48.798;9.070;2022-09-30T03:50:38;8.10;99.90
11264;DHT22;5689;48.798;9.070;2022-09-30T03:53:10;8.00;99.90
11264;DHT22;5689;48.798;9.070;2022-09-30T03:55:48;8.00;99.90
11264;DHT22;5689;48.798;9.070;2022-09-30T03:58:17;8.00;99.90
11264;DHT22;5689;48.798;9.070;2022-09-30T04:00:47;8.10;99.90
11264;DHT22;5689;48.798;9.070;2022-09-30T04:03:16;8.30;99.90
11264;DHT22;5689;48.798;9.070;2022-09-30T04:05:46;8.20;99.90
11264;DHT22;5689;48.798;9.070;2022-09-30T04:08:15;8.20;99.90
11264;DHT22;5689;48.798;9.070;2022-09-30T04:10:43;8.20;99.90
11264;DHT22;5689;48.798;9.070;2022-09-30T04:13:12;8.20;99.90
11264;DHT22;5689;48.798;9.070;2022-09-30T04:15:40;8.10;99.90
11264;DHT22;5689;48.798;9.070;2022-09-30T04:18:08;8.20;99.90
11264;DHT22;5689;48.798;9.070;2022-09-30T04:20:37;8.20;99.90
11264;DHT22;5689;48.798;9.070;2022-09-30T04:23:06;8.20;99.90
11264;DHT22;5689;48.798;9.070;2022-09-30T04:25:35;8.40;99.90
11264;DHT22;5689;48.798;9.070;2022-09-30T04:28:03;8.30;99.90
11264;DHT22;5689;48.798;9.070;2022-09-30T04:30:31;8.30;99.90
11264;DHT22;5689;48.798;9.070;2022-09-30T04:32:59;8.20;99.90
11264;DHT22;5689;48.798;9.070;2022-09-30T04:35:27;8.20;99.90
11264;DHT22;5689;48.798;9.070;2022-09-30T04:37:55;8.30;99.90
11264;DHT22;5689;48.798;9.070;2022-09-30T04:40:24;8.30;99.90
11264;DHT22;5689;48.798;9.070;2022-09-30T04:42:56;8.20;99.90
11264;DHT22;5689;48.798;9.070;2022-09-30T04:45:24;8.20;99.90
11264;DHT22;5689;48.798;9.070;2022-09-30T04:47:52;8.30;99.90
11264;DHT22;5689;48.798;9.070;2022-09-30T04:50:20;8.20;99.90
11264;DHT22;5689;48.798;9.070;2022-09-30T04:52:49;8.30;99.90
11264;DHT22;5689;48.798;9.070;2022-09-30T04:55:17;8.10;99.90
11264;DHT22;5689;48.798;9.070;2022-09-30T04:57:45;8.00;99.90
11264;DHT22;5689;48.798;9.070;2022-09-30T05:00:15;7.80;99.90
11264;DHT22;5689;48.798;9.070;2022-09-30T05:02:43;7.70;99.90
11264;DHT22;5689;48.798;9.070;2022-09-30T05:05:11;7.50;99.90
11264;DHT22;5689;48.798;9.070;2022-09-30T05:07:39;7.50;99.90
11264;DHT22;5689;48.798;9.070;2022-09-30T05:10:08;7.50;99.90
11264;DHT22;5689;48.798;9.070;2022-09-30T05:12:37;7.50;99.90
11264;DHT22;5689;48.798;9.070;2022-09-30T05:15:07;7.70;99.90
11264;DHT22;5689;48.798;9.070;2022-09-30T05:17:37;7.60;99.90
11264;DHT22;5689;48.798;9.070;2022-09-30T05:20:06;7.80;99.90
11264;DHT22;5689;48.798;9.070;2022-09-30T05:22:36;7.80;99.90
11264;DHT22;5689;48.798;9.070;2022-09-30T05:25:05;7.70;99.90
11264;DHT22;5689;48.798;9.070;2022-09-30T05:27:33;7.60;99.90
11264;DHT22;5689;48.798;9.070;2022-09-30T05:30:02;7.30;99.90
11264;DHT22;5689;48.798;9.070;2022-09-30T05:32:32;7.20;99.90
11264;DHT22;5689;48.798;9.070;2022-09-30T05:35:02;7.10;99.90
11264;DHT22;5689;48.798;9.070;2022-09-30T05:37:30;7.20;99.90
11264;DHT22;5689;48.798;9.070;2022-09-30T05:39:58;7.20;99.90
11264;DHT22;5689;48.798;9.070;2022-09-30T05:42:26;7.40;99.90
11264;DHT22;5689;48.798;9.070;2022-09-30T05:44:54;7.50;99.90
11264;DHT22;5689;48.798;9.070;2022-09-30T05:47:22;7.60;99.90
11264;DHT22;5689;48.798;9.070;2022-09-30T05:49:50;7.60;99.90
11264;DHT22;5689;48.798;9.070;2022-09-30T05:52:22;7.60;99.90
11264;DHT22;5689;48.798;9.070;2022-09-30T05:54:50;7.60;99.90
11264;DHT22;5689;48.798;9.070;2022-09-30T05:57:18;7.70;99.90
11264;DHT22;5689;48.798;9.070;2022-09-30T05:59:47;7.90;99.90
11264;DHT22;5689;48.798;9.070;2022-09-30T06:02:15;7.90;99.90
11264;DHT22;5689;48.798;9.070;2022-09-30T06:04:43;7.90;99.90
11264;DHT22;5689;48.798;9.070;2022-09-30T06:07:11;8.50;99.90
11264;DHT22;5689;48.798;9.070;2022-09-30T06:09:41;8.80;99.90
11264;DHT22;5689;48.798;9.070;2022-09-30T06:12:16;8.90;99.90
11264;DHT22;5689;48.798;9.070;2022-09-30T06:14:46;8.80;99.90
11264;DHT22;5689;48.798;9.070;2022-09-30T06:17:14;9.10;99.90
11264;DHT22;5689;48.798;9.070;2022-09-30T06:19:45;9.20;99.90
11264;DHT22;5689;48.798;9.070;2022-09-30T06:22:13;9.90;99.90
11264;DHT22;5689;48.798;9.070;2022-09-30T06:24:43;10.00;99.90
11264;DHT22;5689;48.798;9.070;2022-09-30T06:27:11;10.20;99.90
11264;DHT22;5689;48.798;9.070;2022-09-30T06:29:39;10.40;99.90
11264;DHT22;5689;48.798;9.070;2022-09-30T06:32:07;10.50;99.90
11264;DHT22;5689;48.798;9.070;2022-09-30T06:34:35;10.70;99.90
11264;DHT22;5689;48.798;9.070;2022-09-30T06:37:04;10.90;99.90
11264;DHT22;5689;48.798;9.070;2022-09-30T06:39:32;11.10;99.90
11264;DHT22;5689;48.798;9.070;2022-09-30T06:42:02;11.60;99.90
11264;DHT22;5689;48.798;9.070;2022-09-30T06:44:34;12.30;99.90
11264;DHT22;5689;48.798;9.070;2022-09-30T06:47:11;12.80;99.90
11264;DHT22;5689;48.798;9.070;2022-09-30T06:49:46;13.10;99.90
11264;DHT22;5689;48.798;9.070;2022-09-30T06:52:15;12.80;99.90
11264;DHT22;5689;48.798;9.070;2022-09-30T06:54:43;12.50;99.90
11264;DHT22;5689;48.798;9.070;2022-09-30T06:57:14;12.10;99.90
11264;DHT22;5689;48.798;9.070;2022-09-30T06:59:42;11.70;99.90
11264;DHT22;5689;48.798;9.070;2022-09-30T07:02:11;11.60;99.90
11264;DHT22;5689;48.798;9.070;2022-09-30T07:04:39;11.70;99.90
11264;DHT22;5689;48.798;9.070;2022-09-30T07:07:07;11.60;99.90
11264;DHT22;5689;48.798;9.070;2022-09-30T07:09:35;11.40;99.90
11264;DHT22;5689;48.798;9.070;2022-09-30T07:12:03;11.10;99.90
11264;DHT22;5689;48.798;9.070;2022-09-30T07:14:33;11.20;99.90
11264;DHT22;5689;48.798;9.070;2022-09-30T07:17:02;11.10;99.90
11264;DHT22;5689;48.798;9.070;2022-09-30T07:19:31;10.90;99.90
11264;DHT22;5689;48.798;9.070;2022-09-30T07:22:01;11.00;99.90
11264;DHT22;5689;48.798;9.070;2022-09-30T07:24:43;11.30;99.90
11264;DHT22;5689;48.798;9.070;2022-09-30T07:27:11;11.10;99.90
11264;DHT22;5689;48.798;9.070;2022-09-30T07:29:40;10.90;99.90
11264;DHT22;5689;48.798;9.070;2022-09-30T07:32:22;10.90;99.90
11264;DHT22;5689;48.798;9.070;2022-09-30T07:34:50;10.40;99.90
11264;DHT22;5689;48.798;9.070;2022-09-30T07:37:18;10.40;99.90
11264;DHT22;5689;48.798;9.070;2022-09-30T07:39:47;10.60;99.90
11264;DHT22;5689;48.798;9.070;2022-09-30T07:42:16;10.90;99.90
11264;DHT22;5689;48.798;9.070;2022-09-30T07:44:49;11.10;99.90
11264;DHT22;5689;48.798;9.070;2022-09-30T07:47:19;11.40;99.90
11264;DHT22;5689;48.798;9.070;2022-09-30T07:49:47;11.30;99.90
11264;DHT22;5689;48.798;9.070;2022-09-30T07:52:15;11.50;99.90
11264;DHT22;5689;48.798;9.070;2022-09-30T07:54:43;11.60;99.90
11264;DHT22;5689;48.798;9.070;2022-09-30T07:57:15;11.70;99.90
11264;DHT22;5689;48.798;9.070;2022-09-30T07:59:43;11.50;99.90
11264;DHT22;5689;48.798;9.070;2022-09-30T08:02:16;11.10;99.90
11264;DHT22;5689;48.798;9.070;2022-09-30T08:04:44;11.20;99.90
11264;DHT22;5689;48.798;9.070;2022-09-30T08:07:14;11.30;99.90
11264;DHT22;5689;48.798;9.070;2022-09-30T08:09:43;11.60;99.90
11264;DHT22;5689;48.798;9.070;2022-09-30T08:12:11;11.80;99.90
11264;DHT22;5689;48.798;9.070;2022-09-30T08:14:39;11.60;99.90
11264;DHT22;5689;48.798;9.070;2022-09-30T08:17:07;11.80;99.90
11264;DHT22;5689;48.798;9.070;2022-09-30T08:19:36;11.70;99.90
11264;DHT22;5689;48.798;9.070;2022-09-30T08:22:07;11.80;99.90
11264;DHT22;5689;48.798;9.070;2022-09-30T08:24:36;11.80;99.90
11264;DHT22;5689;48.798;9.070;2022-09-30T08:27:04;11.70;99.90
11264;DHT22;5689;48.798;9.070;2022-09-30T08:29:32;11.60;99.90
11264;DHT22;5689;48.798;9.070;2022-09-30T08:32:20;12.10;99.90
11264;DHT22;5689;48.798;9.070;2022-09-30T08:34:49;12.50;99.90
11264;DHT22;5689;48.798;9.070;2022-09-30T08:37:17;13.20;99.90
11264;DHT22;5689;48.798;9.070;2022-09-30T08:39:45;13.50;99.90
11264;DHT22;5689;48.798;9.070;2022-09-30T08:42:25;13.60;99.90
11264;DHT22;5689;48.798;9.070;2022-09-30T08:45:12;14.20;99.90
11264;DHT22;5689;48.798;9.070;2022-09-30T08:47:47;14.90;99.90
11264;DHT22;5689;48.798;9.070;2022-09-30T08:50:27;15.40;99.90
11264;DHT22;5689;48.798;9.070;2022-09-30T08:52:58;15.00;99.90
11264;DHT22;5689;48.798;9.070;2022-09-30T08:55:32;14.90;99.90
11264;DHT22;5689;48.798;9.070;2022-09-30T08:58:03;15.30;99.90
11264;DHT22;5689;48.798;9.070;2022-09-30T09:00:32;16.30;99.90
11264;DHT22;5689;48.798;9.070;2022-09-30T09:03:02;18.10;99.90
11264;DHT22;5689;48.798;9.070;2022-09-30T09:05:38;19.10;99.90
11264;DHT22;5689;48.798;9.070;2022-09-30T09:08:14;17.70;99.90
11264;DHT22;5689;48.798;9.070;2022-09-30T09:10:46;17.90;99.90
11264;DHT22;5689;48.798;9.070;2022-09-30T09:13:32;19.40;99.90
11264;DHT22;5689;48.798;9.070;2022-09-30T09:16:09;20.60;99.90
11264;DHT22;5689;48.798;9.070;2022-09-30T09:18:46;21.10;99.90
11264;DHT22;5689;48.798;9.070;2022-09-30T09:21:22;21.20;99.90
11264;DHT22;5689;48.798;9.070;2022-09-30T09:23:52;21.30;99.90
11264;DHT22;5689;48.798;9.070;2022-09-30T09:26:23;20.40;99.90
11264;DHT22;5689;48.798;9.070;2022-09-30T09:29:01;18.00;99.90
11264;DHT22;5689;48.798;9.070;2022-09-30T09:31:30;18.30;99.90
11264;DHT22;5689;48.798;9.070;2022-09-30T09:34:05;19.90;99.90
11264;DHT22;5689;48.798;9.070;2022-09-30T09:36:44;21.20;99.90
11264;DHT22;5689;48.798;9.070;2022-09-30T09:39:30;19.70;99.90
11264;DHT22;5689;48.798;9.070;2022-09-30T09:42:09;19.00;99.90
11264;DHT22;5689;48.798;9.070;2022-09-30T09:44:47;16.90;99.90
11264;DHT22;5689;48.798;9.070;2022-09-30T09:47:17;18.10;99.90
11264;DHT22;5689;48.798;9.070;2022-09-30T09:49:49;18.40;99.90
11264;DHT22;5689;48.798;9.070;2022-09-30T09:52:57;19.30;99.90
11264;DHT22;5689;48.798;9.070;2022-09-30T09:55:28;20.10;99.90
11264;DHT22;5689;48.798;9.070;2022-09-30T09:58:08;20.70;99.90
11264;DHT22;5689;48.798;9.070;2022-09-30T10:00:37;22.50;96.80
11264;DHT22;5689;48.798;9.070;2022-09-30T10:03:21;21.90;95.50
11264;DHT22;5689;48.798;9.070;2022-09-30T10:06:02;24.00;93.50
11264;DHT22;5689;48.798;9.070;2022-09-30T10:08:34;21.70;95.80
11264;DHT22;5689;48.798;9.070;2022-09-30T10:11:04;20.90;95.70
11264;DHT22;5689;48.798;9.070;2022-09-30T10:13:41;21.20;95.80
11264;DHT22;5689;48.798;9.070;2022-09-30T10:16:25;22.30;94.30
11264;DHT22;5689;48.798;9.070;2022-09-30T10:18:54;22.90;93.20
11264;DHT22;5689;48.798;9.070;2022-09-30T10:21:24;23.20;92.60
11264;DHT22;5689;48.798;9.070;2022-09-30T10:23:54;24.80;87.70
11264;DHT22;5689;48.798;9.070;2022-09-30T10:26:24;22.80;91.10
11264;DHT22;5689;48.798;9.070;2022-09-30T10:28:59;25.10;87.60
11264;DHT22;5689;48.798;9.070;2022-09-30T10:31:30;24.00;84.00
11264;DHT22;5689;48.798;9.070;2022-09-30T10:34:00;24.70;81.90
11264;DHT22;5689;48.798;9.070;2022-09-30T10:36:32;25.00;80.70
11264;DHT22;5689;48.798;9.070;2022-09-30T10:39:05;25.70;77.50
11264;DHT22;5689;48.798;9.070;2022-09-30T10:41:35;27.40;71.50
11264;DHT22;5689;48.798;9.070;2022-09-30T10:44:06;27.40;70.50
11264;DHT22;5689;48.798;9.070;2022-09-30T10:46:40;23.30;75.80
11264;DHT22;5689;48.798;9.070;2022-09-30T10:49:22;22.30;81.10
11264;DHT22;5689;48.798;9.070;2022-09-30T10:51:51;25.00;74.60
11264;DHT22;5689;48.798;9.070;2022-09-30T10:54:47;26.40;72.30
11264;DHT22;5689;48.798;9.070;2022-09-30T10:57:19;24.70;75.80
11264;DHT22;5689;48.798;9.070;2022-09-30T10:59:48;25.70;70.10
11264;DHT22;5689;48.798;9.070;2022-09-30T11:02:22;28.60;63.00
11264;DHT22;5689;48.798;9.070;2022-09-30T11:05:00;25.80;71.10
11264;DHT22;5689;48.798;9.070;2022-09-30T11:07:32;25.80;70.30
11264;DHT22;5689;48.798;9.070;2022-09-30T11:10:07;24.90;63.20
11264;DHT22;5689;48.798;9.070;2022-09-30T11:12:43;25.00;66.20
11264;DHT22;5689;48.798;9.070;2022-09-30T11:15:17;25.90;65.70
11264;DHT22;5689;48.798;9.070;2022-09-30T11:17:51;24.70;63.80
11264;DHT22;5689;48.798;9.070;2022-09-30T11:20:25;25.50;62.20
11264;DHT22;5689;48.798;9.070;2022-09-30T11:22:58;23.40;65.40
11264;DHT22;5689;48.798;9.070;2022-09-30T11:25:36;25.70;62.20
11264;DHT22;5689;48.798;9.070;2022-09-30T11:28:26;25.30;64.40
11264;DHT22;5689;48.798;9.070;2022-09-30T11:31:03;25.90;63.00
11264;DHT22;5689;48.798;9.070;2022-09-30T11:33:48;23.60;64.10
11264;DHT22;5689;48.798;9.070;2022-09-30T11:36:25;21.30;69.10
11264;DHT22;5689;48.798;9.070;2022-09-30T11:39:06;20.60;72.50
11264;DHT22;5689;48.798;9.070;2022-09-30T11:41:45;19.50;74.20
11264;DHT22;5689;48.798;9.070;2022-09-30T11:44:24;18.10;77.60
11264;DHT22;5689;48.798;9.070;2022-09-30T11:47:05;17.40;79.30
11264;DHT22;5689;48.798;9.070;2022-09-30T11:50:02;16.90;82.60
11264;DHT22;5689;48.798;9.070;2022-09-30T11:52:41;19.60;78.30
11264;DHT22;5689;48.798;9.070;2022-09-30T11:55:39;21.00;71.30
11264;DHT22;5689;48.798;9.070;2022-09-30T11:58:13;21.60;72.60
11264;DHT22;5689;48.798;9.070;2022-09-30T12:01:13;22.80;70.60
11264;DHT22;5689;48.798;9.070;2022-09-30T12:03:48;20.70;71.40
11264;DHT22;5689;48.798;9.070;2022-09-30T12:06:25;21.50;72.30
11264;DHT22;5689;48.798;9.070;2022-09-30T12:08:59;24.10;67.10
11264;DHT22;5689;48.798;9.070;2022-09-30T12:11:34;22.80;68.00
11264;DHT22;5689;48.798;9.070;2022-09-30T12:14:12;20.90;71.20
11264;DHT22;5689;48.798;9.070;2022-09-30T12:16:44;19.90;73.90
11264;DHT22;5689;48.798;9.070;2022-09-30T12:19:14;19.10;76.00
11264;DHT22;5689;48.798;9.070;2022-09-30T12:21:50;18.80;77.90
11264;DHT22;5689;48.798;9.070;2022-09-30T12:24:24;18.70;77.80
11264;DHT22;5689;48.798;9.070;2022-09-30T12:26:56;19.00;79.00
11264;DHT22;5689;48.798;9.070;2022-09-30T12:29:33;18.60;81.10
11264;DHT22;5689;48.798;9.070;2022-09-30T12:38:22;17.40;83.80
11264;DHT22;5689;48.798;9.070;2022-09-30T12:41:05;18.10;83.30
11264;DHT22;5689;48.798;9.070;2022-09-30T12:44:04;17.80;83.90
11264;DHT22;5689;48.798;9.070;2022-09-30T12:46:49;18.80;82.20
11264;DHT22;5689;48.798;9.070;2022-09-30T12:49:24;18.70;81.30
11264;DHT22;5689;48.798;9.070;2022-09-30T12:51:57;18.30;81.10
11264;DHT22;5689;48.798;9.070;2022-09-30T12:54:31;19.30;79.70
11264;DHT22;5689;48.798;9.070;2022-09-30T12:57:02;22.10;74.20
11264;DHT22;5689;48.798;9.070;2022-09-30T12:59:37;22.50;70.00
11264;DHT22;5689;48.798;9.070;2022-09-30T13:02:20;21.20;70.00
11264;DHT22;5689;48.798;9.070;2022-09-30T13:04:51;20.90;72.20
11264;DHT22;5689;48.798;9.070;2022-09-30T13:07:21;20.50;75.20
11264;DHT22;5689;48.798;9.070;2022-09-30T13:09:58;20.00;78.10
11264;DHT22;5689;48.798;9.070;2022-09-30T13:12:39;19.60;77.50
11264;DHT22;5689;48.798;9.070;2022-09-30T13:15:39;19.80;78.60
11264;DHT22;5689;48.798;9.070;2022-09-30T13:21:19;18.90;81.50
11264;DHT22;5689;48.798;9.070;2022-09-30T13:23:50;18.20;81.60
11264;DHT22;5689;48.798;9.070;2022-09-30T13:26:40;17.80;84.10
11264;DHT22;5689;48.798;9.070;2022-09-30T13:29:33;18.00;83.20
11264;DHT22;5689;48.798;9.070;2022-09-30T13:32:05;17.90;86.20
11264;DHT22;5689;48.798;9.070;2022-09-30T13:34:54;17.30;86.50
11264;DHT22;5689;48.798;9.070;2022-09-30T13:37:36;17.80;84.00
11264;DHT22;5689;48.798;9.070;2022-09-30T13:40:19;17.30;83.00
11264;DHT22;5689;48.798;9.070;2022-09-30T13:42:54;17.90;82.30
11264;DHT22;5689;48.798;9.070;2022-09-30T13:45:32;18.40;83.80
11264;DHT22;5689;48.798;9.070;2022-09-30T13:48:08;18.00;83.50
11264;DHT22;5689;48.798;9.070;2022-09-30T13:50:41;17.80;83.10
11264;DHT22;5689;48.798;9.070;2022-09-30T13:53:18;18.00;83.90
11264;DHT22;5689;48.798;9.070;2022-09-30T13:55:49;17.50;84.30
11264;DHT22;5689;48.798;9.070;2022-09-30T13:58:39;17.40;86.40
11264;DHT22;5689;48.798;9.070;2022-09-30T14:01:13;17.50;86.90
11264;DHT22;5689;48.798;9.070;2022-09-30T14:04:08;17.40;86.90
11264;DHT22;5689;48.798;9.070;2022-09-30T14:06:47;17.30;88.50
11264;DHT22;5689;48.798;9.070;2022-09-30T14:09:46;17.30;88.00
11264;DHT22;5689;48.798;9.070;2022-09-30T14:12:35;17.10;88.30
11264;DHT22;5689;48.798;9.070;2022-09-30T14:15:38;16.70;90.00
11264;DHT22;5689;48.798;9.070;2022-09-30T14:18:30;16.80;90.70
11264;DHT22;5689;48.798;9.070;2022-09-30T14:21:10;17.00;88.90
11264;DHT22;5689;48.798;9.070;2022-09-30T14:23:44;16.80;90.00
11264;DHT22;5689;48.798;9.070;2022-09-30T14:26:28;16.90;88.80
11264;DHT22;5689;48.798;9.070;2022-09-30T14:29:04;17.10;88.50
11264;DHT22;5689;48.798;9.070;2022-09-30T14:31:33;17.50;87.80
11264;DHT22;5689;48.798;9.070;2022-09-30T14:34:10;17.50;87.70
11264;DHT22;5689;48.798;9.070;2022-09-30T14:36:39;17.00;89.60
11264;DHT22;5689;48.798;9.070;2022-09-30T14:39:14;17.50;87.70
11264;DHT22;5689;48.798;9.070;2022-09-30T14:41:49;18.30;86.40
11264;DHT22;5689;48.798;9.070;2022-09-30T14:44:18;18.60;82.70
11264;DHT22;5689;48.798;9.070;2022-09-30T14:46:48;18.60;82.30
11264;DHT22;5689;48.798;9.070;2022-09-30T14:49:19;18.50;82.10
11264;DHT22;5689;48.798;9.070;2022-09-30T14:51:54;18.40;81.80
11264;DHT22;5689;48.798;9.070;2022-09-30T14:54:25;18.00;81.30
11264;DHT22;5689;48.798;9.070;2022-09-30T14:56:57;17.80;81.40
11264;DHT22;5689;48.798;9.070;2022-09-30T14:59:32;17.60;83.90
11264;DHT22;5689;48.798;9.070;2022-09-30T15:02:02;18.00;86.20
11264;DHT22;5689;48.798;9.070;2022-09-30T15:04:33;17.80;86.80
11264;DHT22;5689;48.798;9.070;2022-09-30T15:07:03;17.60;86.50
11264;DHT22;5689;48.798;9.070;2022-09-30T15:09:34;17.50;86.80
11264;DHT22;5689;48.798;9.070;2022-09-30T15:12:06;17.40;87.60
11264;DHT22;5689;48.798;9.070;2022-09-30T15:14:45;18.60;86.40
11264;DHT22;5689;48.798;9.070;2022-09-30T15:17:17;19.70;83.00
11264;DHT22;5689;48.798;9.070;2022-09-30T15:19:47;19.40;84.70
11264;DHT22;5689;48.798;9.070;2022-09-30T15:22:17;20.60;79.90
11264;DHT22;5689;48.798;9.070;2022-09-30T15:24:46;21.10;79.40
11264;DHT22;5689;48.798;9.070;2022-09-30T15:27:20;21.00;79.00
11264;DHT22;5689;48.798;9.070;2022-09-30T15:29:55;22.60;75.30
11264;DHT22;5689;48.798;9.070;2022-09-30T15:32:25;22.50;75.20
11264;DHT22;5689;48.798;9.070;2022-09-30T15:34:54;22.40;73.50
11264;DHT22;5689;48.798;9.070;2022-09-30T15:37:25;22.40;72.20
11264;DHT22;5689;48.798;9.070;2022-09-30T15:40:00;20.90;76.30
11264;DHT22;5689;48.798;9.070;2022-09-30T15:42:54;19.70;79.00
11264;DHT22;5689;48.798;9.070;2022-09-30T15:45:28;19.60;80.40
11264;DHT22;5689;48.798;9.070;2022-09-30T15:48:02;19.90;79.20
11264;DHT22;5689;48.798;9.070;2022-09-30T15:50:35;20.50;77.10
11264;DHT22;5689;48.798;9.070;2022-09-30T15:53:05;20.20;79.50
11264;DHT22;5689;48.798;9.070;2022-09-30T15:55:42;21.50;77.00
11264;DHT22;5689;48.798;9.070;2022-09-30T15:58:31;22.90;73.40
11264;DHT22;5689;48.798;9.070;2022-09-30T16:01:14;23.70;72.10
11264;DHT22;5689;48.798;9.070;2022-09-30T16:03:49;23.00;73.70
11264;DHT22;5689;48.798;9.070;2022-09-30T16:06:23;23.60;73.30
11264;DHT22;5689;48.798;9.070;2022-09-30T16:08:54;23.40;72.00
11264;DHT22;5689;48.798;9.070;2022-09-30T16:11:29;23.20;74.10
11264;DHT22;5689;48.798;9.070;2022-09-30T16:14:00;22.60;75.40
11264;DHT22;5689;48.798;9.070;2022-09-30T16:16:31;21.80;76.90
11264;DHT22;5689;48.798;9.070;2022-09-30T16:18:59;21.10;77.20
11264;DHT22;5689;48.798;9.070;2022-09-30T16:21:40;19.40;81.20
11264;DHT22;5689;48.798;9.070;2022-09-30T16:24:41;17.10;87.90
11264;DHT22;5689;48.798;9.070;2022-09-30T16:27:36;16.50;91.00
11264;DHT22;5689;48.798;9.070;2022-09-30T16:30:06;15.70;93.30
11264;DHT22;5689;48.798;9.070;2022-09-30T16:32:41;15.10;94.90
11264;DHT22;5689;48.798;9.070;2022-09-30T16:35:16;14.90;96.30
11264;DHT22;5689;48.798;9.070;2022-09-30T16:37:44;14.60;97.40
11264;DHT22;5689;48.798;9.070;2022-09-30T16:40:20;14.50;98.70
11264;DHT22;5689;48.798;9.070;2022-09-30T16:42:49;14.10;99.80
11264;DHT22;5689;48.798;9.070;2022-09-30T16:45:18;13.90;99.90
11264;DHT22;5689;48.798;9.070;2022-09-30T16:47:47;13.80;99.90
11264;DHT22;5689;48.798;9.070;2022-09-30T16:50:20;13.30;99.90
11264;DHT22;5689;48.798;9.070;2022-09-30T16:52:49;13.00;99.90